createdAt,value
2022-10-25T00:02:24.944Z,22.60
2022-10-25T00:05:28.088Z,21.60
2022-10-25T00:08:31.090Z,21.00
2022-10-25T00:11:34.498Z,22.60
2022-10-25T00:14:37.480Z,24.10
2022-10-25T00:17:41.708Z,20.60
2022-10-25T00:20:46.826Z,19.70
2022-10-25T00:23:50.855Z,26.00
2022-10-25T00:26:53.763Z,20.40
2022-10-25T00:29:56.658Z,24.20
2022-10-25T00:32:59.774Z,24.60
2022-10-25T00:36:19.432Z,24.40
2022-10-25T00:39:22.285Z,24.20
2022-10-25T00:42:27.180Z,24.30
2022-10-25T00:45:30.213Z,25.60
2022-10-25T00:48:34.637Z,28.80
2022-10-25T00:51:50.745Z,28.10
2022-10-25T00:54:54.595Z,26.00
2022-10-25T00:58:06.773Z,27.50
2022-10-25T01:01:10.504Z,30.60
2022-10-25T01:04:17.393Z,25.70
2022-10-25T01:07:20.336Z,29.00
2022-10-25T01:10:23.229Z,25.30
2022-10-25T01:13:26.196Z,27.90
2022-10-25T01:16:48.889Z,25.60
2022-10-25T01:20:36.698Z,25.50
2022-10-25T01:24:06.042Z,25.50
2022-10-25T01:27:30.893Z,24.40
2022-10-25T01:30:48.938Z,22.50
2022-10-25T01:34:11.833Z,27.00
2022-10-25T01:37:22.561Z,25.70
2022-10-25T01:40:35.925Z,27.40
2022-10-25T01:43:57.332Z,26.30
2022-10-25T01:47:07.527Z,24.60
2022-10-25T01:50:17.756Z,25.90
2022-10-25T01:53:20.636Z,27.50
2022-10-25T01:56:39.320Z,23.60
2022-10-25T02:00:04.398Z,22.40
2022-10-25T02:03:33.876Z,22.80
2022-10-25T02:07:05.826Z,22.10
2022-10-25T02:10:28.699Z,24.40
2022-10-25T02:13:59.298Z,23.60
2022-10-25T02:17:10.894Z,22.30
2022-10-25T02:20:17.778Z,20.70
2022-10-25T02:23:21.506Z,20.50
2022-10-25T02:26:26.359Z,24.30
2022-10-25T02:29:32.108Z,21.90
2022-10-25T02:32:35.399Z,19.40
2022-10-25T02:35:39.238Z,18.30
2022-10-25T02:38:44.297Z,15.30
2022-10-25T02:41:47.131Z,20.80
2022-10-25T02:44:50.004Z,20.10
2022-10-25T02:47:52.922Z,18.60
2022-10-25T02:50:55.769Z,20.10
2022-10-25T02:53:58.817Z,18.20
2022-10-25T02:57:01.684Z,20.50
2022-10-25T03:00:07.797Z,21.20
2022-10-25T03:03:11.057Z,17.40
2022-10-25T03:06:14.793Z,17.30
2022-10-25T03:09:17.803Z,18.90
2022-10-25T03:12:20.774Z,17.90
2022-10-25T03:15:23.664Z,16.70
2022-10-25T03:18:26.673Z,17.40
2022-10-25T03:21:29.622Z,18.40
2022-10-25T03:24:32.588Z,18.00
2022-10-25T03:27:35.526Z,15.70
2022-10-25T03:30:38.594Z,14.80
2022-10-25T03:33:41.808Z,16.70
2022-10-25T03:36:44.735Z,15.50
2022-10-25T03:39:47.588Z,18.50
2022-10-25T03:42:50.510Z,16.20
2022-10-25T03:45:53.465Z,17.40
2022-10-25T03:48:57.478Z,18.00
2022-10-25T03:52:02.765Z,19.30
2022-10-25T03:55:08.976Z,20.00
2022-10-25T03:58:11.994Z,19.00
2022-10-25T04:01:16.834Z,22.80
2022-10-25T04:04:19.841Z,37.40
2022-10-25T04:07:22.802Z,23.20
2022-10-25T04:10:26.319Z,19.60
2022-10-25T04:13:29.201Z,19.40
2022-10-25T04:16:32.046Z,20.50
2022-10-25T04:19:34.967Z,22.90
2022-10-25T04:25:45.687Z,22.20
2022-10-25T04:28:53.351Z,20.30
2022-10-25T04:31:56.233Z,19.70
2022-10-25T04:34:59.100Z,20.80
2022-10-25T04:38:02.103Z,21.80
2022-10-25T04:41:05.181Z,21.00
2022-10-25T04:44:08.109Z,21.20
2022-10-25T04:47:11.082Z,21.90
2022-10-25T04:50:15.533Z,22.30
2022-10-25T04:53:18.588Z,24.20
2022-10-25T04:56:23.885Z,27.00
2022-10-25T04:59:26.798Z,23.70
2022-10-25T05:02:29.780Z,25.20
2022-10-25T05:05:32.674Z,25.00
2022-10-25T05:08:36.891Z,27.50
2022-10-25T05:11:39.886Z,32.90
2022-10-25T05:14:42.824Z,33.80
2022-10-25T05:17:45.697Z,34.20
2022-10-25T05:20:59.111Z,37.10
2022-10-25T05:24:02.649Z,38.10
2022-10-25T05:27:05.807Z,46.10
2022-10-25T05:30:09.971Z,55.80
2022-10-25T05:33:19.795Z,38.40
2022-10-25T05:36:25.530Z,37.80
2022-10-25T05:39:28.359Z,43.30
2022-10-25T05:42:31.239Z,46.70
2022-10-25T05:45:34.089Z,42.60
2022-10-25T05:48:37.747Z,48.00
2022-10-25T05:51:40.815Z,37.60
2022-10-25T05:54:43.689Z,43.50
2022-10-25T05:57:55.774Z,39.70
2022-10-25T06:01:00.716Z,38.50
2022-10-25T06:04:03.802Z,37.80
2022-10-25T06:07:06.806Z,40.00
2022-10-25T06:10:10.834Z,28.80
2022-10-25T06:13:13.895Z,30.40
2022-10-25T06:16:19.963Z,27.40
2022-10-25T06:19:22.928Z,30.30
2022-10-25T06:22:25.912Z,33.10
2022-10-25T06:25:29.310Z,33.50
2022-10-25T06:28:32.701Z,35.80
2022-10-25T06:31:35.697Z,35.10
2022-10-25T06:34:38.570Z,34.60
2022-10-25T06:37:41.420Z,33.20
2022-10-25T06:40:44.220Z,33.80
2022-10-25T06:43:47.465Z,34.90
2022-10-25T06:47:15.979Z,39.70
2022-10-25T06:50:15.819Z,37.30
2022-10-25T06:53:18.720Z,34.10
2022-10-25T06:56:21.608Z,31.20
2022-10-25T06:59:25.084Z,29.50
2022-10-25T07:02:28.255Z,30.10
2022-10-25T07:05:32.473Z,34.80
2022-10-25T07:08:37.095Z,35.20
2022-10-25T07:11:40.655Z,29.40
2022-10-25T07:14:43.722Z,25.60
2022-10-25T07:17:46.921Z,30.60
2022-10-25T07:20:50.839Z,27.20
2022-10-25T07:23:54.334Z,30.50
2022-10-25T07:26:57.309Z,31.30
2022-10-25T07:30:00.242Z,28.60
2022-10-25T07:33:03.404Z,26.90
2022-10-25T07:36:11.093Z,27.10
2022-10-25T07:39:14.644Z,32.00
2022-10-25T07:42:17.493Z,25.70
2022-10-25T07:45:23.625Z,26.50
2022-10-25T07:48:28.525Z,31.80
2022-10-25T07:51:31.585Z,25.50
2022-10-25T07:54:34.734Z,25.90
2022-10-25T07:57:37.771Z,27.90
2022-10-25T08:00:40.938Z,26.40
2022-10-25T08:03:43.826Z,24.20
2022-10-25T08:06:46.740Z,21.70
2022-10-25T08:09:49.594Z,23.60
2022-10-25T08:12:55.283Z,20.00
2022-10-25T08:15:58.870Z,22.70
2022-10-25T08:19:02.172Z,19.50
2022-10-25T08:22:05.105Z,17.90
2022-10-25T08:25:08.491Z,14.70
2022-10-25T08:28:11.485Z,18.90
2022-10-25T08:31:14.486Z,20.30
2022-10-25T08:34:17.543Z,15.70
2022-10-25T08:37:20.991Z,17.80
2022-10-25T08:40:47.507Z,13.70
2022-10-25T08:44:12.723Z,14.50
2022-10-25T08:47:21.196Z,13.10
2022-10-25T08:50:35.548Z,14.90
2022-10-25T08:53:43.738Z,13.50
2022-10-25T08:57:03.454Z,14.40
2022-10-25T09:00:23.985Z,15.10
2022-10-25T09:03:27.844Z,19.70
2022-10-25T09:07:08.475Z,10.90
2022-10-25T09:10:23.224Z,15.20
2022-10-25T09:13:50.869Z,16.00
2022-10-25T09:17:01.800Z,16.40
2022-10-25T09:20:15.710Z,16.80
2022-10-25T09:23:18.654Z,15.50
2022-10-25T09:26:32.506Z,14.00
2022-10-25T09:29:41.678Z,17.10
2022-10-25T09:32:51.391Z,15.60
2022-10-25T09:35:59.698Z,18.50
2022-10-25T09:39:15.757Z,17.60
2022-10-25T09:42:33.104Z,16.30
2022-10-25T09:45:55.758Z,16.10
2022-10-25T09:49:05.551Z,11.80
2022-10-25T09:52:35.328Z,13.30
2022-10-25T09:55:50.196Z,13.30
2022-10-25T09:58:53.422Z,13.20
2022-10-25T10:01:56.813Z,11.60
2022-10-25T10:04:59.806Z,10.60
2022-10-25T10:08:02.713Z,11.20
2022-10-25T10:11:07.180Z,11.30
2022-10-25T10:14:33.303Z,10.90
2022-10-25T10:17:38.226Z,12.60
2022-10-25T10:21:03.426Z,11.40
2022-10-25T10:24:06.640Z,10.90
2022-10-25T10:27:13.924Z,11.20
2022-10-25T10:30:31.405Z,11.10
2022-10-25T10:33:35.355Z,10.40
2022-10-25T10:36:38.409Z,12.00
2022-10-25T10:39:56.371Z,12.60
2022-10-25T10:43:00.476Z,12.60
2022-10-25T10:46:08.492Z,14.30
2022-10-25T10:49:11.924Z,12.70
2022-10-25T10:52:31.235Z,11.80
2022-10-25T10:55:38.028Z,11.70
2022-10-25T10:58:43.995Z,11.80
2022-10-25T11:01:47.074Z,10.00
2022-10-25T11:04:52.926Z,11.00
2022-10-25T11:08:17.434Z,10.90
2022-10-25T11:11:24.871Z,13.20
2022-10-25T11:14:28.028Z,8.60
2022-10-25T11:17:37.288Z,7.50
2022-10-25T11:20:43.269Z,15.40
2022-10-25T11:23:52.347Z,8.10
2022-10-25T11:27:29.155Z,7.80
2022-10-25T11:31:14.900Z,6.40
2022-10-25T11:34:39.581Z,10.50
2022-10-25T11:37:51.491Z,10.30
2022-10-25T11:41:28.392Z,8.50
2022-10-25T11:44:48.913Z,8.80
2022-10-25T11:48:06.710Z,6.00
2022-10-25T11:51:35.256Z,7.90
2022-10-25T11:55:09.981Z,7.20
2022-10-25T11:58:34.915Z,7.00
2022-10-25T12:01:56.410Z,9.70
2022-10-25T12:05:23.193Z,6.40
2022-10-25T12:09:00.183Z,4.90
2022-10-25T12:12:08.944Z,6.80
2022-10-25T12:15:21.694Z,6.30
2022-10-25T12:18:34.657Z,7.00
2022-10-25T12:21:55.687Z,6.70
2022-10-25T12:25:32.163Z,5.70
2022-10-25T12:28:48.755Z,5.80
2022-10-25T12:31:58.796Z,5.20
2022-10-25T12:35:05.163Z,5.00
2022-10-25T12:38:34.153Z,10.50
2022-10-25T12:41:40.280Z,6.90
2022-10-25T12:44:58.365Z,9.30
2022-10-25T12:48:26.144Z,10.10
2022-10-25T12:51:50.408Z,7.50
2022-10-25T12:54:59.705Z,8.50
2022-10-25T12:58:14.606Z,10.30
2022-10-25T13:01:28.793Z,7.50
2022-10-25T13:04:44.056Z,8.90
2022-10-25T13:07:48.843Z,10.40
2022-10-25T13:11:08.462Z,11.80
2022-10-25T13:14:24.442Z,9.30
2022-10-25T13:17:27.248Z,11.40
2022-10-25T13:20:39.642Z,10.20
2022-10-25T13:23:53.530Z,13.50
2022-10-25T13:27:14.693Z,7.80
2022-10-25T13:30:31.993Z,9.70
2022-10-25T13:33:35.505Z,7.70
2022-10-25T13:37:00.245Z,14.60
2022-10-25T13:40:06.097Z,10.70
2022-10-25T13:43:21.892Z,8.40
2022-10-25T13:46:30.754Z,11.80
2022-10-25T13:49:42.729Z,6.70
2022-10-25T13:52:58.967Z,5.40
2022-10-25T13:56:23.487Z,8.20
2022-10-25T13:59:49.592Z,3.70
2022-10-25T14:03:12.713Z,6.10
2022-10-25T14:06:30.907Z,7.30
2022-10-25T14:09:40.027Z,5.90
2022-10-25T14:12:48.699Z,5.20
2022-10-25T14:16:03.130Z,4.90
2022-10-25T14:19:14.231Z,3.80
2022-10-25T14:22:30.318Z,6.20
2022-10-25T14:25:39.583Z,5.00
2022-10-25T14:28:43.238Z,4.60
2022-10-25T14:31:46.387Z,6.20
2022-10-25T14:34:51.427Z,8.60
2022-10-25T14:37:54.579Z,9.40
2022-10-25T14:41:04.337Z,6.20
2022-10-25T14:44:21.999Z,4.70
2022-10-25T14:47:31.022Z,8.00
2022-10-25T14:50:33.987Z,7.00
2022-10-25T14:53:47.997Z,5.70
2022-10-25T14:57:00.583Z,5.60
2022-10-25T15:00:06.357Z,6.00
2022-10-25T15:03:15.915Z,9.60
2022-10-25T15:06:21.847Z,8.60
2022-10-25T15:12:52.125Z,8.50
2022-10-25T15:15:57.033Z,7.50
2022-10-25T15:19:09.299Z,6.90
2022-10-25T15:25:21.585Z,7.50
2022-10-25T15:28:25.155Z,6.10
2022-10-25T15:31:30.731Z,7.00
2022-10-25T15:34:33.710Z,8.10
2022-10-25T15:37:39.212Z,8.00
2022-10-25T15:40:42.103Z,7.80
2022-10-25T15:43:45.015Z,7.70
2022-10-25T15:46:48.980Z,12.40
2022-10-25T15:49:53.370Z,9.80
2022-10-25T15:52:56.674Z,11.30
2022-10-25T15:55:59.632Z,10.60
2022-10-25T15:59:02.759Z,10.10
2022-10-25T16:02:20.840Z,9.30
2022-10-25T16:05:32.687Z,10.70
2022-10-25T16:11:48.425Z,12.70
2022-10-25T16:14:52.970Z,11.70
2022-10-25T16:17:55.843Z,15.70
2022-10-25T16:20:59.242Z,11.30
2022-10-25T16:24:02.153Z,15.70
2022-10-25T16:27:07.771Z,15.00
2022-10-25T16:30:19.163Z,13.00
2022-10-25T16:33:22.118Z,13.50
2022-10-25T16:36:25.013Z,13.30
2022-10-25T16:39:27.961Z,17.40
2022-10-25T16:42:33.531Z,16.10
2022-10-25T16:45:37.580Z,15.10
2022-10-25T16:48:40.437Z,14.20
2022-10-25T16:51:44.359Z,14.20
2022-10-25T16:54:47.637Z,18.10
2022-10-25T16:57:50.907Z,16.40
2022-10-25T17:00:54.061Z,16.00
2022-10-25T17:03:56.953Z,15.50
2022-10-25T17:07:00.819Z,15.40
2022-10-25T17:10:03.767Z,18.50
2022-10-25T17:13:06.778Z,22.90
2022-10-25T17:16:13.233Z,15.50
2022-10-25T17:19:16.124Z,13.10
2022-10-25T17:22:20.597Z,14.90
2022-10-25T17:25:23.586Z,13.50
2022-10-25T17:28:26.688Z,14.60
2022-10-25T17:31:29.969Z,17.20
2022-10-25T17:34:32.846Z,20.60
2022-10-25T17:37:35.815Z,18.70
2022-10-25T17:40:44.173Z,22.70
2022-10-25T17:43:50.015Z,17.20
2022-10-25T17:46:58.315Z,13.00
2022-10-25T17:50:05.158Z,13.80
2022-10-25T17:53:09.714Z,14.30
2022-10-25T17:56:18.238Z,16.70
2022-10-25T17:59:21.198Z,24.10
2022-10-25T18:02:24.187Z,26.60
2022-10-25T18:05:27.115Z,19.50
2022-10-25T18:08:30.223Z,17.90
2022-10-25T18:11:33.180Z,17.20
2022-10-25T18:14:36.255Z,18.90
2022-10-25T18:17:40.762Z,17.10
2022-10-25T18:20:45.004Z,19.20
2022-10-25T18:23:55.101Z,17.50
2022-10-25T18:26:58.599Z,18.90
2022-10-25T18:30:02.272Z,20.30
2022-10-25T18:33:16.249Z,17.00
2022-10-25T18:36:19.946Z,14.70
2022-10-25T18:39:23.427Z,13.80
2022-10-25T18:42:26.333Z,15.30
2022-10-25T18:45:30.752Z,17.80
2022-10-25T18:48:35.812Z,16.40
2022-10-25T18:51:39.094Z,15.10
2022-10-25T18:54:44.950Z,15.90
2022-10-25T18:57:47.950Z,16.70
2022-10-25T19:00:51.270Z,17.10
2022-10-25T19:03:57.321Z,19.70
2022-10-25T19:07:00.380Z,16.10
2022-10-25T19:10:03.482Z,19.40
2022-10-25T19:13:08.270Z,19.40
2022-10-25T19:16:13.404Z,20.50
2022-10-25T19:19:16.367Z,17.80
2022-10-25T19:22:19.213Z,22.40
2022-10-25T19:25:23.899Z,19.90
2022-10-25T19:28:27.012Z,21.10
2022-10-25T19:31:29.849Z,22.10
2022-10-25T19:34:32.921Z,25.70
2022-10-25T19:37:39.237Z,20.60
2022-10-25T19:40:45.395Z,23.60
2022-10-25T19:43:48.612Z,22.00
2022-10-25T19:46:52.197Z,21.40
2022-10-25T19:49:55.027Z,22.80
2022-10-25T19:52:58.053Z,18.20
2022-10-25T19:56:03.389Z,20.20
2022-10-25T19:59:06.969Z,21.00
2022-10-25T20:02:10.314Z,21.40
2022-10-25T20:05:13.494Z,23.10
2022-10-25T20:08:16.334Z,22.10
2022-10-25T20:11:20.966Z,20.70
2022-10-25T20:14:23.778Z,20.20
2022-10-25T20:17:26.686Z,21.40
2022-10-25T20:20:29.578Z,23.00
2022-10-25T20:23:32.378Z,23.30
2022-10-25T20:26:38.147Z,23.90
2022-10-25T20:29:41.011Z,27.80
2022-10-25T20:32:43.915Z,23.40
2022-10-25T20:35:46.897Z,23.50
2022-10-25T20:38:50.427Z,25.70
2022-10-25T20:41:53.302Z,26.90
2022-10-25T20:44:56.259Z,27.80
2022-10-25T20:48:00.152Z,24.20
2022-10-25T20:51:06.825Z,23.20
2022-10-25T20:54:10.982Z,26.40
2022-10-25T20:57:13.772Z,26.50
2022-10-25T21:00:19.730Z,23.80
2022-10-25T21:03:25.581Z,20.50
2022-10-25T21:06:28.525Z,22.10
2022-10-25T21:09:31.358Z,21.80
2022-10-25T21:12:34.720Z,19.70
2022-10-25T21:15:37.902Z,21.40
2022-10-25T21:18:42.552Z,30.90
2022-10-25T21:21:45.407Z,34.10
2022-10-25T21:24:48.309Z,24.90
2022-10-25T21:27:54.602Z,20.30
2022-10-25T21:31:01.277Z,24.90
2022-10-25T21:34:04.683Z,31.90
2022-10-25T21:37:07.679Z,31.70
2022-10-25T21:40:10.740Z,25.20
2022-10-25T21:43:13.632Z,24.40
2022-10-25T21:46:17.928Z,33.80
2022-10-25T21:49:20.718Z,33.50
2022-10-25T21:52:23.652Z,31.90
2022-10-25T21:55:26.550Z,33.70
2022-10-25T21:58:29.380Z,28.60
2022-10-25T22:01:33.014Z,32.10
2022-10-25T22:04:36.109Z,26.30
2022-10-25T22:07:39.171Z,29.40
2022-10-25T22:10:42.219Z,30.40
2022-10-25T22:13:46.114Z,29.00
2022-10-25T22:16:49.215Z,26.50
2022-10-25T22:19:52.306Z,25.50
2022-10-25T22:22:55.349Z,27.60
2022-10-25T22:26:19.736Z,29.20
2022-10-25T22:29:22.816Z,29.50
2022-10-25T22:32:25.849Z,26.90
2022-10-25T22:35:28.926Z,25.90
2022-10-25T22:38:31.952Z,24.10
2022-10-25T22:41:35.449Z,24.80
2022-10-25T22:44:39.311Z,25.90
2022-10-25T22:47:42.413Z,24.90
2022-10-25T22:50:54.064Z,25.20
2022-10-25T22:53:57.746Z,26.50
2022-10-25T22:57:00.792Z,23.90
2022-10-25T23:00:04.178Z,20.50
2022-10-25T23:03:07.263Z,19.90
2022-10-25T23:06:12.847Z,19.80
2022-10-25T23:09:15.963Z,22.90
2022-10-25T23:12:19.257Z,18.70
2022-10-25T23:15:22.343Z,17.50
2022-10-25T23:18:26.191Z,20.40
2022-10-25T23:21:31.055Z,18.70
2022-10-25T23:24:34.195Z,15.90
2022-10-25T23:27:37.273Z,18.10
2022-10-25T23:30:41.283Z,19.70
2022-10-25T23:33:45.014Z,26.80
2022-10-25T23:36:48.767Z,17.50
2022-10-25T23:39:51.807Z,16.30
2022-10-25T23:43:08.573Z,16.50
2022-10-25T23:46:12.123Z,16.10
2022-10-25T23:49:15.191Z,18.20
2022-10-25T23:52:18.466Z,17.80
2022-10-25T23:55:21.583Z,17.70
2022-10-25T23:58:24.658Z,16.30
